createdAt,value
2019-04-29T00:01:53.733Z,100183.63
2019-04-29T00:04:58.898Z,100182.08
2019-04-29T00:08:04.120Z,100182.81
2019-04-29T00:11:09.367Z,100183.48
2019-04-29T00:14:14.711Z,100183.06
2019-04-29T00:17:29.671Z,100188.11
2019-04-29T00:20:42.313Z,100188.25
2019-04-29T00:23:47.466Z,100185.84
2019-04-29T00:26:52.790Z,100177.80
2019-04-29T00:29:57.978Z,100181.74
2019-04-29T00:33:03.319Z,100178.89
2019-04-29T00:36:08.482Z,100185.03
2019-04-29T00:39:32.426Z,100187.56
2019-04-29T00:43:02.473Z,100184.64
2019-04-29T00:46:08.000Z,100187.98
2019-04-29T00:49:13.277Z,100192.43
2019-04-29T00:52:18.524Z,100187.61
2019-04-29T00:55:27.096Z,100191.19
2019-04-29T00:58:32.298Z,100191.61
2019-04-29T01:01:37.411Z,100187.31
2019-04-29T01:04:42.509Z,100191.35
2019-04-29T01:07:47.679Z,100194.53
2019-04-29T01:10:52.991Z,100196.45
2019-04-29T01:13:58.119Z,100188.45
2019-04-29T01:17:03.251Z,100192.63
2019-04-29T01:20:08.941Z,100194.20
2019-04-29T01:23:14.101Z,100191.78
2019-04-29T01:26:36.919Z,100188.17
2019-04-29T01:29:42.212Z,100189.28
2019-04-29T01:32:47.366Z,100187.62
2019-04-29T01:35:57.885Z,100186.80
2019-04-29T01:39:05.645Z,100187.65
2019-04-29T01:42:21.948Z,100196.41
2019-04-29T01:45:27.113Z,100194.38
2019-04-29T01:48:32.306Z,100194.88
2019-04-29T01:51:37.432Z,100195.05
2019-04-29T01:54:42.578Z,100196.69
2019-04-29T01:57:47.744Z,100195.05
2019-04-29T02:00:52.893Z,100193.74
2019-04-29T02:03:58.054Z,100197.66
2019-04-29T02:07:03.247Z,100193.47
2019-04-29T02:10:19.393Z,100187.63
2019-04-29T02:13:24.508Z,100200.31
2019-04-29T02:16:29.689Z,100200.92
2019-04-29T02:19:34.826Z,100201.26
2019-04-29T02:22:45.282Z,100195.22
2019-04-29T02:25:50.532Z,100196.86
2019-04-29T02:28:55.695Z,100192.42
2019-04-29T02:32:00.945Z,100190.31
2019-04-29T02:35:06.177Z,100190.04
2019-04-29T02:38:17.787Z,100182.87
2019-04-29T02:41:35.008Z,100187.16
2019-04-29T02:44:40.172Z,100187.49
2019-04-29T02:47:45.393Z,100188.88
2019-04-29T02:50:50.517Z,100189.52
2019-04-29T02:53:55.737Z,100185.55
2019-04-29T02:57:06.212Z,100187.55
2019-04-29T03:00:33.727Z,100187.85
2019-04-29T03:04:03.716Z,100183.50
2019-04-29T03:07:08.974Z,100181.56
2019-04-29T03:10:14.382Z,100177.63
2019-04-29T03:13:19.469Z,100176.02
2019-04-29T03:16:24.627Z,100173.94
2019-04-29T03:19:34.425Z,100177.59
2019-04-29T03:22:40.674Z,100174.90
2019-04-29T03:25:45.834Z,100174.53
2019-04-29T03:28:51.184Z,100177.65
2019-04-29T03:31:57.845Z,100174.90
2019-04-29T03:35:03.081Z,100166.84
2019-04-29T03:38:08.268Z,100171.84
2019-04-29T03:41:13.440Z,100175.67
2019-04-29T03:44:18.655Z,100177.70
2019-04-29T03:47:23.803Z,100176.77
2019-04-29T03:50:29.062Z,100180.85
2019-04-29T03:53:34.276Z,100178.12
2019-04-29T03:56:40.087Z,100184.34
2019-04-29T03:59:45.239Z,100187.30
2019-04-29T04:02:59.187Z,100185.07
2019-04-29T04:06:29.612Z,100181.09
2019-04-29T04:09:35.781Z,100187.53
2019-04-29T04:12:41.153Z,100188.03
2019-04-29T04:15:46.404Z,100192.94
2019-04-29T04:18:57.062Z,100198.42
2019-04-29T04:22:02.317Z,100203.44
2019-04-29T04:25:07.538Z,100206.23
2019-04-29T04:28:12.667Z,100208.85
2019-04-29T04:31:17.801Z,100202.30
2019-04-29T04:34:23.078Z,100205.47
2019-04-29T04:37:28.211Z,100206.72
2019-04-29T04:40:40.791Z,100207.56
2019-04-29T04:43:46.042Z,100207.51
2019-04-29T04:46:51.166Z,100211.69
2019-04-29T04:49:56.344Z,100213.37
2019-04-29T04:53:03.138Z,100222.11
2019-04-29T04:56:08.287Z,100218.56
2019-04-29T04:59:13.397Z,100229.05
2019-04-29T05:02:18.521Z,100226.27
2019-04-29T05:05:23.708Z,100227.64
2019-04-29T05:08:28.899Z,100232.68
2019-04-29T05:11:34.030Z,100238.77
2019-04-29T05:14:39.218Z,100240.20
2019-04-29T05:17:44.473Z,100238.55
2019-04-29T05:20:49.687Z,100239.94
2019-04-29T05:23:54.799Z,100243.95
2019-04-29T05:26:59.913Z,100239.58
2019-04-29T05:30:05.775Z,100249.23
2019-04-29T05:33:10.909Z,100243.50
2019-04-29T05:36:29.751Z,100243.84
2019-04-29T05:39:37.635Z,100238.52
2019-04-29T05:42:42.806Z,100238.02
2019-04-29T05:45:54.959Z,100241.55
2019-04-29T05:49:02.333Z,100241.81
2019-04-29T05:52:15.255Z,100247.14
2019-04-29T05:55:20.533Z,100245.95
2019-04-29T05:58:25.643Z,100243.50
2019-04-29T06:01:31.534Z,100251.73
2019-04-29T06:04:36.691Z,100259.63
2019-04-29T06:07:41.910Z,100251.25
2019-04-29T06:10:47.080Z,100262.51
2019-04-29T06:13:52.239Z,100258.90
2019-04-29T06:17:02.463Z,100261.70
2019-04-29T06:20:04.593Z,100258.67
2019-04-29T06:23:09.724Z,100260.81
2019-04-29T06:26:15.930Z,100251.67
2019-04-29T06:29:21.069Z,100259.28
2019-04-29T06:32:26.469Z,100255.23
2019-04-29T06:35:31.657Z,100252.84
2019-04-29T06:38:36.893Z,100254.70
2019-04-29T06:41:45.513Z,100248.94
2019-04-29T06:44:50.498Z,100249.70
2019-04-29T06:47:55.593Z,100251.87
2019-04-29T06:51:00.728Z,100257.91
2019-04-29T06:54:05.932Z,100250.13
2019-04-29T06:57:11.161Z,100249.66
2019-04-29T07:00:21.682Z,100251.44
2019-04-29T07:03:25.541Z,100254.05
2019-04-29T07:06:30.059Z,100247.80
2019-04-29T07:09:35.161Z,100250.21
2019-04-29T07:12:42.791Z,100243.09
2019-04-29T07:15:48.903Z,100242.17
2019-04-29T07:18:54.173Z,100249.48
2019-04-29T07:21:59.383Z,100241.68
2019-04-29T07:25:04.725Z,100233.59
2019-04-29T07:28:13.751Z,100232.41
2019-04-29T07:31:17.890Z,100220.31
2019-04-29T07:34:23.025Z,100229.02
2019-04-29T07:37:29.889Z,100228.16
2019-04-29T07:40:38.702Z,100229.22
2019-04-29T07:43:43.044Z,100221.00
2019-04-29T07:46:56.769Z,100220.20
2019-04-29T07:49:58.876Z,100225.66
2019-04-29T07:53:04.036Z,100217.12
2019-04-29T07:56:09.280Z,100218.56
2019-04-29T07:59:14.435Z,100214.05
2019-04-29T08:02:19.540Z,100209.56
2019-04-29T08:05:24.854Z,100208.64
2019-04-29T08:08:32.064Z,100201.75
2019-04-29T08:11:37.676Z,100204.80
2019-04-29T08:14:43.807Z,100199.13
2019-04-29T08:17:51.393Z,100203.61
2019-04-29T08:20:55.807Z,100214.52
2019-04-29T08:24:00.953Z,100204.24
2019-04-29T08:27:06.120Z,100203.81
2019-04-29T08:30:12.799Z,100199.59
2019-04-29T08:33:18.140Z,100196.70
2019-04-29T08:36:23.290Z,100202.25
2019-04-29T08:39:29.323Z,100202.17
2019-04-29T08:42:41.853Z,100204.32
2019-04-29T08:45:49.502Z,100212.27
2019-04-29T08:48:54.709Z,100207.74
2019-04-29T08:52:00.880Z,100208.84
2019-04-29T08:55:06.570Z,100203.16
2019-04-29T08:58:12.911Z,100203.50
2019-04-29T09:01:18.102Z,100195.84
2019-04-29T09:04:23.265Z,100195.45
2019-04-29T09:07:28.399Z,100194.55
2019-04-29T09:10:36.774Z,100191.36
2019-04-29T09:13:40.314Z,100190.59
2019-04-29T09:16:45.491Z,100188.53
2019-04-29T09:19:50.775Z,100193.09
2019-04-29T09:23:00.520Z,100188.52
2019-04-29T09:26:24.715Z,100183.10
2019-04-29T09:29:36.614Z,100180.68
2019-04-29T09:32:41.911Z,100184.85
2019-04-29T09:35:47.098Z,100189.68
2019-04-29T09:38:52.238Z,100189.10
2019-04-29T09:42:19.420Z,100195.00
2019-04-29T09:45:30.988Z,100188.56
2019-04-29T09:48:36.175Z,100186.69
2019-04-29T09:51:41.405Z,100182.80
2019-04-29T09:54:46.588Z,100186.36
2019-04-29T09:57:51.899Z,100178.27
2019-04-29T10:01:21.977Z,100180.97
2019-04-29T10:04:56.446Z,100177.66
2019-04-29T10:07:56.066Z,100179.42
2019-04-29T10:11:01.259Z,100176.89
2019-04-29T10:14:06.570Z,100178.50
2019-04-29T10:17:36.743Z,100183.36
2019-04-29T10:20:54.259Z,100179.36
2019-04-29T10:23:59.472Z,100174.44
2019-04-29T10:27:07.354Z,100172.03
2019-04-29T10:30:13.898Z,100172.09
2019-04-29T10:33:22.819Z,100165.38
2019-04-29T10:36:26.539Z,100156.03
2019-04-29T10:39:49.455Z,100153.01
2019-04-29T10:43:17.889Z,100146.54
2019-04-29T10:46:40.686Z,100138.15
2019-04-29T10:49:49.942Z,100134.19
2019-04-29T10:52:56.136Z,100132.44
2019-04-29T10:56:05.637Z,100132.96
2019-04-29T10:59:11.168Z,100132.86
2019-04-29T11:02:34.574Z,100121.48
2019-04-29T11:05:59.975Z,100120.44
2019-04-29T11:09:00.352Z,100110.40
2019-04-29T11:12:09.951Z,100115.55
2019-04-29T11:15:16.786Z,100110.00
2019-04-29T11:18:23.214Z,100116.41
2019-04-29T11:21:29.356Z,100105.13
2019-04-29T11:24:50.079Z,100108.97
2019-04-29T11:27:56.298Z,100116.41
2019-04-29T11:31:02.614Z,100115.06
2019-04-29T11:34:33.537Z,100103.31
2019-04-29T11:37:38.867Z,100098.31
2019-04-29T11:40:44.555Z,100098.29
2019-04-29T11:43:51.093Z,100086.60
2019-04-29T11:46:56.755Z,100091.13
2019-04-29T11:50:13.721Z,100088.98
2019-04-29T11:53:18.867Z,100084.62
2019-04-29T11:56:24.142Z,100076.62
2019-04-29T11:59:40.050Z,100070.38
2019-04-29T12:02:54.308Z,100074.16
2019-04-29T12:06:02.266Z,100071.84
2019-04-29T12:09:08.366Z,100068.35
2019-04-29T12:12:15.199Z,100060.43
2019-04-29T12:15:37.161Z,100056.41
2019-04-29T12:18:49.628Z,100062.58
2019-04-29T12:21:55.301Z,100054.97
2019-04-29T12:25:00.510Z,100047.92
2019-04-29T12:28:18.808Z,100055.53
2019-04-29T12:31:20.234Z,100043.68
2019-04-29T12:34:48.461Z,100046.38
2019-04-29T12:38:11.433Z,100047.00
2019-04-29T12:41:47.678Z,100051.71
2019-04-29T12:45:03.610Z,100056.17
2019-04-29T12:48:09.105Z,100066.30
2019-04-29T12:51:16.958Z,100070.63
2019-04-29T12:54:21.153Z,100080.13
2019-04-29T12:57:26.352Z,100082.55
2019-04-29T13:00:46.343Z,100077.66
2019-04-29T13:04:02.067Z,100070.52
2019-04-29T13:07:24.972Z,100063.45
2019-04-29T13:10:44.223Z,100055.34
2019-04-29T13:13:51.251Z,100052.59
2019-04-29T13:17:14.444Z,100045.07
2019-04-29T13:20:15.123Z,100041.07
2019-04-29T13:23:33.209Z,100028.59
2019-04-29T13:26:28.611Z,100020.81
2019-04-29T13:29:36.202Z,100012.42
2019-04-29T13:32:41.123Z,100016.80
2019-04-29T13:35:48.363Z,100008.15
2019-04-29T13:38:53.387Z,99998.52
2019-04-29T13:42:02.852Z,99997.27
2019-04-29T13:45:12.990Z,99994.86
2019-04-29T13:48:25.978Z,99977.91
2019-04-29T13:51:35.676Z,99977.78
2019-04-29T13:54:42.395Z,99974.75
2019-04-29T13:57:49.111Z,99964.09
2019-04-29T14:01:03.652Z,99971.09
2019-04-29T14:04:24.180Z,99968.97
2019-04-29T14:07:26.686Z,99967.83
2019-04-29T14:10:34.719Z,99971.44
2019-04-29T14:13:43.632Z,99969.98
2019-04-29T14:16:47.547Z,99969.89
2019-04-29T14:19:56.953Z,99972.30
2019-04-29T14:23:00.846Z,99977.75
2019-04-29T14:26:06.050Z,99973.59
2019-04-29T14:29:11.276Z,99973.00
2019-04-29T14:32:18.176Z,99971.83
2019-04-29T14:35:48.347Z,99972.09
2019-04-29T14:38:53.610Z,99971.16
2019-04-29T14:42:02.459Z,99962.47
2019-04-29T14:45:26.775Z,99958.80
2019-04-29T14:48:42.738Z,99965.08
2019-04-29T14:51:42.884Z,99956.02
2019-04-29T14:54:48.054Z,99957.73
2019-04-29T14:57:53.220Z,99958.47
2019-04-29T15:01:16.134Z,99955.36
2019-04-29T15:04:23.716Z,99959.05
2019-04-29T15:07:36.032Z,99964.05
2019-04-29T15:10:42.056Z,99957.91
2019-04-29T15:13:49.139Z,99960.58
2019-04-29T15:17:00.646Z,99960.22
2019-04-29T15:20:15.445Z,99951.60
2019-04-29T15:23:28.275Z,99950.09
2019-04-29T15:26:27.465Z,99949.52
2019-04-29T15:29:33.563Z,99948.11
2019-04-29T15:32:38.805Z,99949.41
2019-04-29T15:35:44.106Z,99952.52
2019-04-29T15:39:07.932Z,99954.92
2019-04-29T15:41:57.252Z,99948.25
2019-04-29T15:45:02.437Z,99954.99
2019-04-29T15:48:10.506Z,99954.03
2019-04-29T15:51:15.850Z,99959.48
2019-04-29T15:54:21.022Z,99962.67
2019-04-29T15:57:26.480Z,99962.73
2019-04-29T16:00:37.932Z,99961.28
2019-04-29T16:03:38.944Z,99959.17
2019-04-29T16:07:02.453Z,99960.84
2019-04-29T16:10:32.888Z,99954.50
2019-04-29T16:13:38.109Z,99950.67
2019-04-29T16:16:43.277Z,99953.27
2019-04-29T16:19:48.426Z,99944.69
2019-04-29T16:22:54.084Z,99933.37
2019-04-29T16:26:00.563Z,99929.76
2019-04-29T16:29:12.483Z,99932.46
2019-04-29T16:32:16.668Z,99941.46
2019-04-29T16:35:23.639Z,99943.86
2019-04-29T16:38:28.740Z,99944.78
2019-04-29T16:42:02.189Z,99956.06
2019-04-29T16:45:12.228Z,99944.66
2019-04-29T16:48:16.145Z,99941.28
2019-04-29T16:51:21.346Z,99929.88
2019-04-29T16:54:28.503Z,99923.35
2019-04-29T16:57:33.511Z,99922.11
2019-04-29T17:00:39.965Z,99923.23
2019-04-29T17:03:45.236Z,99917.45
2019-04-29T17:10:20.343Z,99903.59
2019-04-29T17:13:25.680Z,99895.09
2019-04-29T17:16:30.844Z,99900.48
2019-04-29T17:19:35.943Z,99893.53
2019-04-29T17:22:43.215Z,99897.77
2019-04-29T17:25:47.959Z,99897.36
2019-04-29T17:29:37.273Z,99888.86
2019-04-29T17:32:54.105Z,99898.20
2019-04-29T17:35:15.990Z,99909.77
2019-04-29T17:35:59.743Z,99897.77
2019-04-29T17:39:06.811Z,99899.22
2019-04-29T17:42:12.855Z,99903.06
2019-04-29T17:45:30.583Z,99907.92
2019-04-29T17:48:38.374Z,99902.34
2019-04-29T17:51:45.880Z,99909.39
2019-04-29T17:54:55.051Z,99910.42
2019-04-29T17:58:08.545Z,99910.01
2019-04-29T18:01:28.953Z,99913.33
2019-04-29T18:04:49.659Z,99909.99
2019-04-29T18:08:23.901Z,99908.14
2019-04-29T18:11:30.260Z,99911.05
2019-04-29T18:14:40.322Z,99915.41
2019-04-29T18:17:42.456Z,99909.27
2019-04-29T18:21:19.206Z,99912.51
2019-04-29T18:24:52.562Z,99907.13
2019-04-29T18:28:00.323Z,99910.63
2019-04-29T18:31:06.494Z,99917.14
2019-04-29T18:34:11.693Z,99919.12
2019-04-29T18:37:18.519Z,99917.45
2019-04-29T18:40:25.742Z,99925.34
2019-04-29T18:43:30.574Z,99938.80
2019-04-29T18:46:35.792Z,99940.87
2019-04-29T18:49:40.992Z,99942.31
2019-04-29T18:52:46.179Z,99942.01
2019-04-29T18:55:51.569Z,99950.52
2019-04-29T18:58:56.710Z,99941.48
2019-04-29T19:02:07.715Z,99962.61
2019-04-29T19:05:20.004Z,99971.92
2019-04-29T19:08:28.695Z,99971.29
2019-04-29T19:11:32.873Z,99969.23
2019-04-29T19:14:38.798Z,99967.47
2019-04-29T19:17:46.580Z,99965.27
2019-04-29T19:20:52.939Z,99969.25
2019-04-29T19:24:00.685Z,99963.87
2019-04-29T19:27:09.446Z,99961.34
2019-04-29T19:30:14.280Z,99962.91
2019-04-29T19:33:20.115Z,99970.08
2019-04-29T19:36:25.320Z,99975.23
2019-04-29T19:39:30.594Z,99969.15
2019-04-29T19:42:39.642Z,99971.84
2019-04-29T19:45:44.699Z,99977.44
2019-04-29T19:48:49.645Z,99974.33
2019-04-29T19:51:55.542Z,99971.95
2019-04-29T19:55:01.550Z,99983.64
2019-04-29T19:58:11.982Z,99980.75
2019-04-29T20:01:26.556Z,99974.00
2019-04-29T20:04:32.153Z,99956.72
2019-04-29T20:07:42.367Z,99961.06
2019-04-29T20:10:49.735Z,99972.25
2019-04-29T20:14:02.087Z,99973.41
2019-04-29T20:17:20.477Z,99968.53
2019-04-29T20:20:50.886Z,99970.78
2019-04-29T20:23:56.297Z,99973.27
2019-04-29T20:27:01.612Z,99978.17
2019-04-29T20:30:15.988Z,99971.74
2019-04-29T20:33:16.114Z,99972.87
2019-04-29T20:36:33.068Z,99971.95
2019-04-29T20:39:28.255Z,99973.80
2019-04-29T20:42:35.651Z,99975.03
2019-04-29T20:45:40.689Z,99971.53
2019-04-29T20:48:50.015Z,99967.39
2019-04-29T20:51:56.692Z,99967.59
2019-04-29T20:55:02.787Z,99964.19
2019-04-29T20:58:08.249Z,99964.78
2019-04-29T21:01:19.993Z,99958.26
2019-04-29T21:04:33.784Z,99962.84
2019-04-29T21:07:32.294Z,99955.36
2019-04-29T21:10:37.829Z,99960.36
2019-04-29T21:13:55.974Z,99964.39
2019-04-29T21:17:02.312Z,99962.02
2019-04-29T21:20:05.557Z,99959.41
2019-04-29T21:23:10.901Z,99962.52
2019-04-29T21:26:16.065Z,99954.55
2019-04-29T21:29:21.202Z,99961.27
2019-04-29T21:32:30.501Z,99960.95
2019-04-29T21:35:43.057Z,99960.84
2019-04-29T21:39:07.258Z,99959.91
2019-04-29T21:42:35.511Z,99960.43
2019-04-29T21:45:39.816Z,99963.23
2019-04-29T21:48:43.626Z,99962.30
2019-04-29T21:51:49.922Z,99964.06
2019-04-29T21:54:57.005Z,99961.97
2019-04-29T21:58:01.945Z,99964.67
2019-04-29T22:01:07.920Z,99966.53
2019-04-29T22:04:13.373Z,99961.86
2019-04-29T22:07:19.103Z,99958.27
2019-04-29T22:10:28.876Z,99963.32
2019-04-29T22:13:35.675Z,99971.11
2019-04-29T22:16:38.268Z,99974.09
2019-04-29T22:19:45.033Z,99972.46
2019-04-29T22:22:50.365Z,99968.20
2019-04-29T22:25:56.740Z,99963.10
2019-04-29T22:29:03.525Z,99966.64
2019-04-29T22:32:14.431Z,99970.91
2019-04-29T22:35:16.563Z,99962.83
2019-04-29T22:38:21.884Z,99957.83
2019-04-29T22:41:48.757Z,99962.91
2019-04-29T22:44:57.318Z,99959.50
2019-04-29T22:48:12.155Z,99962.61
2019-04-29T22:51:10.147Z,99963.76
2019-04-29T22:54:17.640Z,99965.52
2019-04-29T22:57:22.900Z,99957.52
2019-04-29T23:00:32.693Z,99963.84
2019-04-29T23:03:38.731Z,99961.97
2019-04-29T23:06:47.916Z,99965.30
2019-04-29T23:09:51.049Z,99968.11
2019-04-29T23:12:57.531Z,99969.03
2019-04-29T23:16:03.855Z,99963.44
2019-04-29T23:19:09.858Z,99957.72
2019-04-29T23:22:29.059Z,99962.80
2019-04-29T23:25:38.422Z,99960.41
2019-04-29T23:28:45.651Z,99958.46
2019-04-29T23:31:50.501Z,99953.48
2019-04-29T23:34:57.272Z,99950.38
2019-04-29T23:38:04.264Z,99954.83
2019-04-29T23:41:09.388Z,99952.03
2019-04-29T23:44:14.587Z,99946.35
2019-04-29T23:47:19.858Z,99939.92
2019-04-29T23:50:27.880Z,99950.39
2019-04-29T23:53:31.859Z,99937.96
2019-04-29T23:56:48.263Z,99937.97
